VIR811P EGPH-EGCC
Flight info
| Callsign | VIR811P |
|---|---|
| Flight time | 0h 40m |
| Altitude | 25000 |
| Route | GOSAM P600 FENIK L612 LAKEY |
| Aircraft | A35K/H-SDE2E3GHIJ3J4J5LM1ORWXY/LB1D1 |
Departure
| Time | 2026-05-07 11:51 |
|---|---|
| Airport | Edinburgh Airport (EGPH) |
Arrival
| Time | 2026-05-07 12:31 |
|---|---|
| Airport | Manchester Airport (EGCC) |
| Time | Latitude | Longitude | Altitude | Speed | Heading |
|---|---|---|---|---|---|
| 2026-05-07 11:09 | 55.95025 | -3.36044 | 122 ft | 0 kts | 248° |
| 2026-05-07 11:40 | 55.95028 | -3.36033 | 117 ft | 4 kts | 248° |
| 2026-05-07 11:41 | 55.95038 | -3.35988 | 117 ft | 4 kts | 248° |
| 2026-05-07 11:41 | 55.95049 | -3.35938 | 117 ft | 4 kts | 251° |
| 2026-05-07 11:41 | 55.95054 | -3.35907 | 117 ft | 4 kts | 262° |
| 2026-05-07 11:41 | 55.95053 | -3.35862 | 119 ft | 4 kts | 295° |
| 2026-05-07 11:42 | 55.95055 | -3.35868 | 118 ft | 4 kts | 298° |
| 2026-05-07 11:42 | 55.95061 | -3.35888 | 117 ft | 0 kts | 298° |
| 2026-05-07 11:46 | 55.95068 | -3.35911 | 117 ft | 5 kts | 298° |
| 2026-05-07 11:46 | 55.95085 | -3.35972 | 117 ft | 7 kts | 294° |
| 2026-05-07 11:46 | 55.95109 | -3.36086 | 120 ft | 11 kts | 289° |
| 2026-05-07 11:47 | 55.95154 | -3.36149 | 117 ft | 8 kts | 5° |
| 2026-05-07 11:47 | 55.95204 | -3.36066 | 118 ft | 13 kts | 54° |
| 2026-05-07 11:47 | 55.95258 | -3.35914 | 117 ft | 12 kts | 58° |
| 2026-05-07 11:47 | 55.95306 | -3.35771 | 117 ft | 16 kts | 59° |
| 2026-05-07 11:48 | 55.95361 | -3.35611 | 117 ft | 10 kts | 58° |
| 2026-05-07 11:48 | 55.95407 | -3.35474 | 117 ft | 15 kts | 58° |
| 2026-05-07 11:48 | 55.95458 | -3.35417 | 119 ft | 10 kts | 359° |
| 2026-05-07 11:48 | 55.95528 | -3.35473 | 116 ft | 10 kts | 328° |
| 2026-05-07 11:49 | 55.95559 | -3.35516 | 114 ft | 4 kts | 309° |
| 2026-05-07 11:49 | 55.95559 | -3.35591 | 115 ft | 8 kts | 248° |
| 2026-05-07 11:49 | 55.95542 | -3.35646 | 115 ft | 3 kts | 239° |
| 2026-05-07 11:49 | 55.95542 | -3.35648 | 115 ft | 0 kts | 239° |
| 2026-05-07 11:50 | 55.95536 | -3.35665 | 116 ft | 4 kts | 239° |
| 2026-05-07 11:50 | 55.95452 | -3.35914 | 113 ft | 62 kts | 239° |
| 2026-05-07 11:50 | 55.95065 | -3.37056 | 118 ft | 149 kts | 237° |
| 2026-05-07 11:51 | 55.94472 | -3.38764 | 877 ft | 166 kts | 236° |
| 2026-05-07 11:51 | 55.93886 | -3.40543 | 2024 ft | 170 kts | 236° |
| 2026-05-07 11:51 | 55.93236 | -3.42486 | 2589 ft | 193 kts | 235° |
| 2026-05-07 11:51 | 55.92492 | -3.44602 | 3315 ft | 205 kts | 235° |
| 2026-05-07 11:52 | 55.91713 | -3.46817 | 3996 ft | 223 kts | 236° |
| 2026-05-07 11:52 | 55.90877 | -3.49241 | 4793 ft | 235 kts | 238° |
| 2026-05-07 11:52 | 55.90298 | -3.52023 | 5593 ft | 245 kts | 254° |
| 2026-05-07 11:52 | 55.89986 | -3.55048 | 6572 ft | 250 kts | 257° |
| 2026-05-07 11:53 | 55.89701 | -3.58124 | 7616 ft | 252 kts | 257° |
| 2026-05-07 11:53 | 55.89405 | -3.61230 | 8619 ft | 256 kts | 257° |
| 2026-05-07 11:53 | 55.89098 | -3.64371 | 9668 ft | 258 kts | 257° |
| 2026-05-07 11:53 | 55.88789 | -3.67527 | 10467 ft | 269 kts | 257° |
| 2026-05-07 11:54 | 55.88445 | -3.70942 | 10887 ft | 291 kts | 257° |
| 2026-05-07 11:54 | 55.88070 | -3.74618 | 11297 ft | 312 kts | 257° |
| 2026-05-07 11:54 | 55.87674 | -3.78517 | 11867 ft | 325 kts | 257° |
| 2026-05-07 11:54 | 55.87274 | -3.82536 | 12613 ft | 332 kts | 257° |
| 2026-05-07 11:55 | 55.86871 | -3.86621 | 13366 ft | 337 kts | 257° |
| 2026-05-07 11:55 | 55.86460 | -3.90759 | 14074 ft | 343 kts | 257° |
| 2026-05-07 11:55 | 55.86039 | -3.94974 | 14781 ft | 347 kts | 257° |
| 2026-05-07 11:55 | 55.85619 | -3.99172 | 15550 ft | 349 kts | 257° |
| 2026-05-07 11:56 | 55.85179 | -4.03448 | 16317 ft | 352 kts | 256° |
| 2026-05-07 11:56 | 55.84453 | -4.07618 | 17025 ft | 354 kts | 244° |
| 2026-05-07 11:56 | 55.83148 | -4.11341 | 17739 ft | 356 kts | 231° |
| 2026-05-07 11:56 | 55.81535 | -4.14727 | 18403 ft | 361 kts | 229° |
| 2026-05-07 11:57 | 55.79864 | -4.18084 | 18992 ft | 365 kts | 228° |
| 2026-05-07 11:57 | 55.78011 | -4.21199 | 19629 ft | 368 kts | 220° |
| 2026-05-07 11:57 | 55.75965 | -4.23975 | 20237 ft | 372 kts | 214° |
| 2026-05-07 11:57 | 55.73647 | -4.25969 | 20831 ft | 377 kts | 199° |
| 2026-05-07 11:58 | 55.71046 | -4.26729 | 21432 ft | 384 kts | 182° |
| 2026-05-07 11:58 | 55.68392 | -4.25965 | 22037 ft | 392 kts | 163° |
| 2026-05-07 11:58 | 55.65855 | -4.24075 | 22646 ft | 398 kts | 157° |
| 2026-05-07 11:58 | 55.63398 | -4.21776 | 23248 ft | 401 kts | 154° |
| 2026-05-07 11:59 | 55.60964 | -4.19285 | 23799 ft | 405 kts | 152° |
| 2026-05-07 11:59 | 55.58529 | -4.16738 | 24264 ft | 409 kts | 152° |
| 2026-05-07 11:59 | 55.56069 | -4.14193 | 24716 ft | 412 kts | 153° |
| 2026-05-07 11:59 | 55.53573 | -4.11662 | 24934 ft | 416 kts | 153° |
| 2026-05-07 12:00 | 55.51015 | -4.09124 | 24982 ft | 439 kts | 154° |
| 2026-05-07 12:00 | 55.48250 | -4.06422 | 24981 ft | 453 kts | 154° |
| 2026-05-07 12:00 | 55.45524 | -4.03766 | 24967 ft | 454 kts | 154° |
| 2026-05-07 12:00 | 55.42756 | -4.01081 | 24975 ft | 454 kts | 154° |
| 2026-05-07 12:01 | 55.39992 | -3.98407 | 24989 ft | 453 kts | 154° |
| 2026-05-07 12:01 | 55.37224 | -3.95733 | 24984 ft | 453 kts | 154° |
| 2026-05-07 12:01 | 55.34467 | -3.93070 | 24985 ft | 453 kts | 154° |
| 2026-05-07 12:01 | 55.31701 | -3.90401 | 24985 ft | 453 kts | 154° |
| 2026-05-07 12:02 | 55.28938 | -3.87739 | 24991 ft | 453 kts | 153° |
| 2026-05-07 12:02 | 55.26173 | -3.85068 | 24983 ft | 453 kts | 153° |
| 2026-05-07 12:02 | 55.23407 | -3.82398 | 24992 ft | 454 kts | 153° |
| 2026-05-07 12:02 | 55.20639 | -3.79727 | 24990 ft | 454 kts | 153° |
| 2026-05-07 12:03 | 55.17868 | -3.77063 | 24998 ft | 455 kts | 153° |
| 2026-05-07 12:03 | 55.15086 | -3.74403 | 24999 ft | 455 kts | 153° |
| 2026-05-07 12:03 | 55.12304 | -3.71752 | 25004 ft | 456 kts | 153° |
| 2026-05-07 12:03 | 55.09514 | -3.69100 | 25004 ft | 456 kts | 153° |
| 2026-05-07 12:04 | 55.06734 | -3.66461 | 25004 ft | 456 kts | 153° |
| 2026-05-07 12:04 | 55.03944 | -3.63818 | 25005 ft | 456 kts | 153° |
| 2026-05-07 12:04 | 55.01158 | -3.61182 | 25004 ft | 456 kts | 153° |
| 2026-05-07 12:04 | 54.98366 | -3.58543 | 25007 ft | 456 kts | 153° |
| 2026-05-07 12:05 | 54.95581 | -3.55906 | 25000 ft | 456 kts | 153° |
| 2026-05-07 12:05 | 54.92830 | -3.53311 | 25005 ft | 456 kts | 153° |
| 2026-05-07 12:05 | 54.90044 | -3.50692 | 25010 ft | 455 kts | 153° |
| 2026-05-07 12:05 | 54.87257 | -3.48077 | 25010 ft | 455 kts | 153° |
| 2026-05-07 12:06 | 54.84466 | -3.45461 | 25009 ft | 455 kts | 153° |
| 2026-05-07 12:06 | 54.81731 | -3.42901 | 25009 ft | 455 kts | 154° |
| 2026-05-07 12:06 | 54.79639 | -3.40946 | 25012 ft | 455 kts | 154° |
| 2026-05-07 12:06 | 54.76853 | -3.38344 | 25012 ft | 455 kts | 154° |
| 2026-05-07 12:07 | 54.74061 | -3.35741 | 25013 ft | 455 kts | 154° |
| 2026-05-07 12:07 | 54.71266 | -3.33143 | 25012 ft | 455 kts | 154° |
| 2026-05-07 12:07 | 54.68425 | -3.30747 | 25010 ft | 454 kts | 157° |
| 2026-05-07 12:07 | 54.65564 | -3.28608 | 25011 ft | 453 kts | 159° |
| 2026-05-07 12:08 | 54.62651 | -3.26537 | 25011 ft | 453 kts | 159° |
| 2026-05-07 12:08 | 54.59734 | -3.24476 | 25019 ft | 453 kts | 159° |
| 2026-05-07 12:08 | 54.56821 | -3.22380 | 25018 ft | 453 kts | 159° |
| 2026-05-07 12:08 | 54.53916 | -3.20247 | 25016 ft | 453 kts | 158° |
| 2026-05-07 12:09 | 54.51013 | -3.18092 | 25018 ft | 453 kts | 158° |
| 2026-05-07 12:09 | 54.48158 | -3.15959 | 24904 ft | 450 kts | 158° |
| 2026-05-07 12:09 | 54.45293 | -3.13835 | 24675 ft | 447 kts | 158° |
| 2026-05-07 12:09 | 54.42442 | -3.11730 | 24428 ft | 446 kts | 158° |
| 2026-05-07 12:10 | 54.39604 | -3.09633 | 24021 ft | 441 kts | 158° |
| 2026-05-07 12:10 | 54.36799 | -3.07560 | 23322 ft | 436 kts | 158° |
| 2026-05-07 12:10 | 54.34035 | -3.05520 | 22587 ft | 430 kts | 158° |
| 2026-05-07 12:10 | 54.31295 | -3.03501 | 21877 ft | 424 kts | 158° |
| 2026-05-07 12:11 | 54.28608 | -3.01521 | 21205 ft | 419 kts | 158° |
| 2026-05-07 12:11 | 54.25936 | -2.99555 | 20508 ft | 414 kts | 158° |
| 2026-05-07 12:11 | 54.23361 | -2.97394 | 19834 ft | 411 kts | 150° |
| 2026-05-07 12:11 | 54.20941 | -2.94775 | 19317 ft | 415 kts | 148° |
| 2026-05-07 12:12 | 54.18544 | -2.92070 | 18785 ft | 417 kts | 148° |
| 2026-05-07 12:12 | 54.16126 | -2.89344 | 18232 ft | 415 kts | 148° |
| 2026-05-07 12:12 | 54.13716 | -2.86633 | 17636 ft | 413 kts | 148° |
| 2026-05-07 12:12 | 54.11327 | -2.83950 | 17095 ft | 410 kts | 148° |
| 2026-05-07 12:13 | 54.08955 | -2.81295 | 16564 ft | 406 kts | 148° |
| 2026-05-07 12:13 | 54.06601 | -2.78663 | 16027 ft | 402 kts | 148° |
| 2026-05-07 12:13 | 54.04273 | -2.76064 | 15502 ft | 398 kts | 148° |
| 2026-05-07 12:13 | 54.01964 | -2.73493 | 14989 ft | 395 kts | 148° |
| 2026-05-07 12:14 | 53.99672 | -2.70943 | 14469 ft | 392 kts | 148° |
| 2026-05-07 12:14 | 53.97396 | -2.68415 | 13956 ft | 389 kts | 148° |
| 2026-05-07 12:14 | 53.95135 | -2.65906 | 13396 ft | 385 kts | 148° |
| 2026-05-07 12:14 | 53.92921 | -2.63455 | 12908 ft | 382 kts | 148° |
| 2026-05-07 12:15 | 53.90708 | -2.61006 | 12392 ft | 378 kts | 148° |
| 2026-05-07 12:15 | 53.88534 | -2.58602 | 12064 ft | 365 kts | 149° |
| 2026-05-07 12:15 | 53.86455 | -2.56302 | 11787 ft | 348 kts | 149° |
| 2026-05-07 12:15 | 53.84472 | -2.54109 | 11492 ft | 333 kts | 149° |
| 2026-05-07 12:16 | 53.82572 | -2.52011 | 11225 ft | 319 kts | 149° |
| 2026-05-07 12:16 | 53.80750 | -2.50003 | 10978 ft | 306 kts | 149° |
| 2026-05-07 12:16 | 53.79011 | -2.48091 | 10723 ft | 287 kts | 149° |
| 2026-05-07 12:16 | 53.77397 | -2.46319 | 10362 ft | 266 kts | 149° |
| 2026-05-07 12:17 | 53.75893 | -2.44674 | 10027 ft | 249 kts | 150° |
| 2026-05-07 12:17 | 53.74487 | -2.43138 | 9676 ft | 233 kts | 150° |
| 2026-05-07 12:17 | 53.73153 | -2.41684 | 9227 ft | 224 kts | 150° |
| 2026-05-07 12:17 | 53.71867 | -2.40285 | 8776 ft | 222 kts | 150° |
| 2026-05-07 12:18 | 53.70569 | -2.38873 | 8470 ft | 220 kts | 149° |
| 2026-05-07 12:18 | 53.69291 | -2.37479 | 8204 ft | 218 kts | 150° |
| 2026-05-07 12:18 | 53.68019 | -2.36092 | 7866 ft | 217 kts | 149° |
| 2026-05-07 12:18 | 53.66753 | -2.34672 | 7454 ft | 221 kts | 146° |
| 2026-05-07 12:19 | 53.65737 | -2.32680 | 6936 ft | 227 kts | 123° |
| 2026-05-07 12:19 | 53.64978 | -2.30360 | 6441 ft | 225 kts | 120° |
| 2026-05-07 12:19 | 53.64270 | -2.28009 | 5880 ft | 224 kts | 120° |
| 2026-05-07 12:19 | 53.63848 | -2.25522 | 5520 ft | 219 kts | 96° |
| 2026-05-07 12:20 | 53.63868 | -2.23020 | 5312 ft | 207 kts | 89° |
| 2026-05-07 12:20 | 53.63964 | -2.20671 | 5247 ft | 202 kts | 89° |
| 2026-05-07 12:20 | 53.64070 | -2.18319 | 5213 ft | 204 kts | 89° |
| 2026-05-07 12:20 | 53.64181 | -2.15840 | 5199 ft | 217 kts | 89° |
| 2026-05-07 12:21 | 53.64193 | -2.13276 | 5148 ft | 218 kts | 101° |
| 2026-05-07 12:21 | 53.63859 | -2.10799 | 5102 ft | 216 kts | 109° |
| 2026-05-07 12:21 | 53.63356 | -2.08428 | 5086 ft | 214 kts | 122° |
| 2026-05-07 12:21 | 53.62485 | -2.06428 | 5089 ft | 210 kts | 133° |
| 2026-05-07 12:22 | 53.61525 | -2.04564 | 5019 ft | 211 kts | 135° |
| 2026-05-07 12:22 | 53.60551 | -2.02713 | 4944 ft | 211 kts | 135° |
| 2026-05-07 12:22 | 53.59580 | -2.00862 | 4863 ft | 207 kts | 134° |
| 2026-05-07 12:22 | 53.58638 | -1.99076 | 4770 ft | 202 kts | 135° |
| 2026-05-07 12:23 | 53.57711 | -1.97312 | 4708 ft | 201 kts | 135° |
| 2026-05-07 12:23 | 53.56784 | -1.95562 | 4621 ft | 200 kts | 135° |
| 2026-05-07 12:23 | 53.55872 | -1.93834 | 4537 ft | 199 kts | 134° |
| 2026-05-07 12:23 | 53.54806 | -1.92466 | 4436 ft | 188 kts | 161° |
| 2026-05-07 12:24 | 53.53550 | -1.92371 | 4360 ft | 179 kts | 195° |
| 2026-05-07 12:24 | 53.52407 | -1.93168 | 4287 ft | 177 kts | 206° |
| 2026-05-07 12:24 | 53.51445 | -1.94386 | 4210 ft | 176 kts | 225° |
| 2026-05-07 12:24 | 53.50649 | -1.95965 | 4111 ft | 177 kts | 229° |
| 2026-05-07 12:25 | 53.49872 | -1.97573 | 4089 ft | 176 kts | 229° |
| 2026-05-07 12:25 | 53.49101 | -1.99165 | 4084 ft | 176 kts | 229° |
| 2026-05-07 12:25 | 53.48327 | -2.00758 | 4073 ft | 176 kts | 228° |
| 2026-05-07 12:25 | 53.47552 | -2.02351 | 3920 ft | 176 kts | 229° |
| 2026-05-07 12:26 | 53.46782 | -2.03957 | 3665 ft | 177 kts | 229° |
| 2026-05-07 12:26 | 53.46008 | -2.05562 | 3419 ft | 176 kts | 229° |
| 2026-05-07 12:26 | 53.45233 | -2.07160 | 3185 ft | 176 kts | 228° |
| 2026-05-07 12:26 | 53.44477 | -2.08726 | 2923 ft | 174 kts | 228° |
| 2026-05-07 12:27 | 53.43718 | -2.10298 | 2690 ft | 171 kts | 227° |
| 2026-05-07 12:27 | 53.42999 | -2.11784 | 2469 ft | 157 kts | 227° |
| 2026-05-07 12:27 | 53.42325 | -2.13177 | 2256 ft | 151 kts | 226° |
| 2026-05-07 12:27 | 53.41661 | -2.14544 | 2053 ft | 150 kts | 227° |
| 2026-05-07 12:28 | 53.41010 | -2.15890 | 1838 ft | 148 kts | 226° |
| 2026-05-07 12:28 | 53.40368 | -2.17213 | 1640 ft | 147 kts | 227° |
| 2026-05-07 12:28 | 53.39721 | -2.18551 | 1443 ft | 146 kts | 227° |
| 2026-05-07 12:28 | 53.39105 | -2.19825 | 1240 ft | 134 kts | 225° |
| 2026-05-07 12:29 | 53.38538 | -2.20989 | 1043 ft | 124 kts | 227° |
| 2026-05-07 12:29 | 53.38005 | -2.22085 | 880 ft | 121 kts | 227° |
| 2026-05-07 12:29 | 53.37659 | -2.22806 | 770 ft | 119 kts | 227° |
| 2026-05-07 12:29 | 53.37131 | -2.23899 | 640 ft | 122 kts | 227° |
| 2026-05-07 12:30 | 53.36597 | -2.24991 | 421 ft | 118 kts | 227° |
| 2026-05-07 12:30 | 53.36070 | -2.26067 | 302 ft | 121 kts | 229° |
| 2026-05-07 12:30 | 53.35579 | -2.27071 | 262 ft | 96 kts | 231° |
| 2026-05-07 12:30 | 53.35224 | -2.27804 | 244 ft | 65 kts | 231° |
| 2026-05-07 12:31 | 53.35033 | -2.28211 | 238 ft | 30 kts | 236° |
| 2026-05-07 12:31 | 53.34964 | -2.28462 | 237 ft | 21 kts | 255° |
| 2026-05-07 12:31 | 53.34945 | -2.28621 | 238 ft | 9 kts | 261° |
| 2026-05-07 12:31 | 53.34971 | -2.28728 | 238 ft | 9 kts | 327° |
| 2026-05-07 12:32 | 53.35038 | -2.28692 | 239 ft | 13 kts | 43° |
| 2026-05-07 12:32 | 53.35108 | -2.28557 | 239 ft | 16 kts | 51° |
| 2026-05-07 12:32 | 53.35178 | -2.28414 | 239 ft | 18 kts | 52° |
| 2026-05-07 12:32 | 53.35267 | -2.28254 | 238 ft | 21 kts | 38° |
| 2026-05-07 12:33 | 53.35547 | -2.28053 | 241 ft | 22 kts | 45° |
| 2026-05-07 12:33 | 53.35632 | -2.27911 | 247 ft | 16 kts | 27° |
| 2026-05-07 12:33 | 53.35747 | -2.27878 | 253 ft | 18 kts | 8° |